Time;durP1;ratioP1;P1;durP2;ratioP2;P2;SDS_P1;SDS_P2;PMS_P1;PMS_P2;Temp;Humidity;BMP_temperature;BMP_pressure;BME280_temperature;BME280_humidity;BME280_pressure;Samples;Min_cycle;Max_cycle;Signal;HPM_P1;HPM_P2
2021/06/16 00:00:50;;;;;;;4.37;1.43;;;17.50;1.00;;;;;;5117494;28;20467;-71
2021/06/16 00:03:17;;;;;;;5.17;1.57;;;17.40;1.00;;;;;;5118091;28;20453;-70
2021/06/16 00:05:45;;;;;;;2.87;1.80;;;17.40;1.00;;;;;;5117155;28;20456;-71
2021/06/16 00:08:12;;;;;;;3.83;1.80;;;17.40;1.00;;;;;;5118097;28;20467;-70
2021/06/16 00:10:39;;;;;;;2.13;1.50;;;17.40;1.00;;;;;;5117697;28;20464;-70
2021/06/16 00:13:06;;;;;;;2.33;1.50;;;17.40;1.00;;;;;;5117639;28;20526;-71
2021/06/16 00:15:35;;;;;;;2.90;1.33;;;17.40;1.00;;;;;;5117296;28;20456;-71
2021/06/16 00:18:03;;;;;;;3.60;1.60;;;17.40;1.00;;;;;;5117699;28;20452;-71
2021/06/16 00:20:30;;;;;;;4.23;1.40;;;17.30;1.00;;;;;;5117148;28;20488;-70
2021/06/16 00:22:58;;;;;;;3.30;1.30;;;17.30;1.00;;;;;;5117023;28;20464;-71
2021/06/16 00:25:26;;;;;;;2.07;1.67;;;17.30;1.00;;;;;;5116856;28;20912;-71
2021/06/16 00:27:54;;;;;;;2.50;1.20;;;17.30;1.00;;;;;;5117034;28;20566;-71
2021/06/16 00:30:21;;;;;;;3.47;1.93;;;17.20;1.00;;;;;;5116714;28;20476;-71
2021/06/16 00:32:48;;;;;;;2.13;1.40;;;17.30;1.00;;;;;;5116937;28;20475;-71
2021/06/16 00:35:18;;;;;;;4.10;1.30;;;17.20;1.00;;;;;;5117245;28;20456;-71
2021/06/16 00:37:45;;;;;;;2.67;1.60;;;17.20;1.00;;;;;;5117060;28;20457;-71
2021/06/16 00:40:15;;;;;;;2.43;1.50;;;17.20;1.00;;;;;;5116791;28;20471;-71
2021/06/16 00:42:43;;;;;;;4.50;2.00;;;17.20;1.00;;;;;;5116783;28;20457;-71
2021/06/16 00:45:11;;;;;;;2.40;1.20;;;17.20;1.00;;;;;;5116562;28;20459;-70
2021/06/16 00:47:38;;;;;;;3.73;1.70;;;17.20;1.00;;;;;;5116561;28;20476;-71
2021/06/16 00:50:07;;;;;;;2.50;1.50;;;17.20;1.00;;;;;;5116843;28;20491;-71
2021/06/16 00:52:37;;;;;;;2.83;1.80;;;17.20;1.00;;;;;;5116393;28;20452;-71
2021/06/16 00:55:04;;;;;;;2.50;1.70;;;17.20;1.00;;;;;;5116862;28;20464;-71
2021/06/16 00:57:33;;;;;;;2.80;1.47;;;17.20;1.00;;;;;;5116749;28;20452;-72
2021/06/16 01:00:07;;;;;;;3.00;1.90;;;17.20;1.00;;;;;;5116889;28;20467;-72
2021/06/16 01:02:35;;;;;;;2.07;1.30;;;17.10;1.00;;;;;;5116502;28;20444;-70
2021/06/16 01:05:06;;;;;;;3.10;1.20;;;17.20;1.00;;;;;;5116638;28;20789;-71
2021/06/16 01:07:38;;;;;;;2.10;1.60;;;17.10;1.00;;;;;;5116204;28;20441;-71
2021/06/16 01:10:06;;;;;;;3.93;1.60;;;17.10;1.00;;;;;;5116096;28;20461;-71
2021/06/16 01:12:42;;;;;;;3.60;1.80;;;17.00;1.00;;;;;;5116503;28;20456;-71
2021/06/16 01:15:15;;;;;;;2.67;1.40;;;17.00;1.00;;;;;;5116493;28;20444;-71
2021/06/16 01:17:46;;;;;;;1.77;1.40;;;17.00;1.00;;;;;;5116209;28;20765;-71
2021/06/16 01:20:32;;;;;;;2.03;1.20;;;17.00;1.00;;;;;;5116302;28;20834;-72
2021/06/16 01:23:36;;;;;;;4.47;1.67;;;17.00;1.00;;;;;;5116049;28;20444;-71
2021/06/16 01:26:18;;;;;;;2.23;1.43;;;17.00;1.00;;;;;;5115749;28;20470;-71
2021/06/16 01:28:45;;;;;;;2.07;1.33;;;16.90;1.00;;;;;;5116146;28;20428;-71
2021/06/16 01:31:16;;;;;;;2.03;1.63;;;16.90;1.00;;;;;;5115753;28;20456;-70
2021/06/16 01:33:43;;;;;;;1.20;1.10;;;16.90;1.00;;;;;;5116303;28;20436;-72
2021/06/16 01:36:11;;;;;;;1.70;1.50;;;16.80;1.00;;;;;;5115856;28;20463;-71
2021/06/16 01:38:38;;;;;;;3.50;1.47;;;16.80;1.00;;;;;;5115845;28;20456;-72
2021/06/16 01:41:10;;;;;;;2.13;1.27;;;16.80;1.00;;;;;;5115541;28;20460;-72
2021/06/16 01:43:39;;;;;;;3.30;1.50;;;16.80;1.00;;;;;;5116139;28;20865;-72
2021/06/16 01:46:06;;;;;;;2.47;1.40;;;16.70;1.00;;;;;;5115262;28;20460;-72
2021/06/16 01:48:34;;;;;;;1.90;1.20;;;16.70;1.00;;;;;;5116264;28;20766;-72
2021/06/16 01:51:01;;;;;;;1.90;1.43;;;16.70;1.00;;;;;;5115211;28;20986;-72
2021/06/16 01:53:29;;;;;;;4.10;1.60;;;16.60;1.00;;;;;;5115761;28;20483;-72
2021/06/16 01:55:56;;;;;;;2.17;1.40;;;16.60;1.00;;;;;;5115268;28;20948;-71
2021/06/16 01:58:24;;;;;;;3.20;1.40;;;16.60;1.00;;;;;;5115459;28;20535;-72
2021/06/16 02:00:54;;;;;;;3.00;1.47;;;16.50;1.00;;;;;;5115839;28;20453;-72
2021/06/16 02:03:21;;;;;;;1.87;1.13;;;16.60;1.00;;;;;;5115426;28;20437;-72
2021/06/16 02:05:48;;;;;;;3.87;1.30;;;16.50;1.00;;;;;;5115119;28;20928;-71
2021/06/16 02:08:19;;;;;;;2.43;1.50;;;16.50;1.00;;;;;;5115280;28;20496;-70
2021/06/16 02:10:49;;;;;;;1.53;1.00;;;16.50;1.00;;;;;;5115421;28;20468;-70
2021/06/16 02:13:21;;;;;;;2.73;1.47;;;16.40;1.00;;;;;;5115515;28;20481;-71
2021/06/16 02:16:05;;;;;;;4.60;2.00;;;16.40;1.00;;;;;;5115068;28;20445;-71
2021/06/16 02:18:37;;;;;;;3.90;1.80;;;16.40;1.00;;;;;;5115433;28;20440;-71
2021/06/16 02:21:05;;;;;;;2.90;1.67;;;16.40;1.00;;;;;;5114954;28;20932;-71
2021/06/16 02:23:31;;;;;;;2.63;1.70;;;16.30;1.00;;;;;;5115344;28;20551;-71
2021/06/16 02:25:58;;;;;;;3.83;1.53;;;16.30;1.00;;;;;;5115122;28;20766;-71
2021/06/16 02:28:25;;;;;;;2.00;1.73;;;16.30;1.00;;;;;;5116238;28;20509;-71
2021/06/16 02:30:55;;;;;;;2.97;1.50;;;16.30;1.00;;;;;;5119288;28;20480;-71
2021/06/16 02:33:23;;;;;;;3.93;2.63;;;16.20;1.00;;;;;;5119074;28;20467;-71
2021/06/16 02:35:50;;;;;;;1.70;1.57;;;16.20;1.00;;;;;;5119387;28;20456;-71
2021/06/16 02:38:22;;;;;;;1.87;1.70;;;16.20;1.00;;;;;;5119428;28;20464;-71
2021/06/16 02:40:49;;;;;;;2.03;1.50;;;16.20;1.00;;;;;;5118914;28;20448;-71
2021/06/16 02:43:17;;;;;;;3.10;1.70;;;16.20;1.00;;;;;;5119156;28;20816;-71
2021/06/16 02:45:49;;;;;;;2.97;1.57;;;16.20;1.00;;;;;;5119211;28;20467;-71
2021/06/16 02:48:18;;;;;;;2.70;1.60;;;16.20;1.00;;;;;;5119030;28;20432;-71
2021/06/16 02:50:48;;;;;;;2.83;1.93;;;16.20;1.00;;;;;;5118693;28;20476;-72
2021/06/16 02:53:17;;;;;;;2.77;1.50;;;16.20;1.00;;;;;;5119407;28;20448;-72
2021/06/16 02:55:48;;;;;;;2.87;1.37;;;16.20;1.00;;;;;;5118958;28;20478;-72
2021/06/16 02:58:17;;;;;;;1.70;1.20;;;16.20;1.00;;;;;;5118877;28;20481;-71
2021/06/16 03:00:45;;;;;;;2.50;1.40;;;16.10;1.00;;;;;;5118546;28;20905;-71
2021/06/16 03:03:16;;;;;;;3.13;1.30;;;16.20;1.00;;;;;;5118906;28;20451;-71
2021/06/16 03:05:44;;;;;;;1.60;1.50;;;16.20;1.00;;;;;;5119634;28;20469;-72
2021/06/16 03:08:14;;;;;;;1.90;1.47;;;16.20;1.00;;;;;;5118636;28;20924;-72
2021/06/16 03:10:41;;;;;;;1.80;1.30;;;16.10;1.00;;;;;;5118764;28;20468;-72
2021/06/16 03:13:08;;;;;;;2.17;1.50;;;16.10;1.00;;;;;;5118354;28;20460;-72
2021/06/16 03:15:36;;;;;;;1.97;1.70;;;16.10;1.00;;;;;;5118186;28;20782;-72
2021/06/16 03:18:04;;;;;;;1.90;1.10;;;16.10;1.00;;;;;;5118618;28;20813;-71
2021/06/16 03:20:32;;;;;;;2.80;1.50;;;16.10;1.00;;;;;;5118957;28;20463;-73
2021/06/16 03:23:00;;;;;;;2.23;1.80;;;16.20;1.00;;;;;;5118597;28;20452;-72
2021/06/16 03:25:29;;;;;;;2.60;1.40;;;16.20;1.00;;;;;;5118580;28;20773;-72
2021/06/16 03:27:56;;;;;;;1.80;1.33;;;16.20;1.00;;;;;;5118588;28;20768;-72
2021/06/16 03:30:24;;;;;;;1.57;1.37;;;16.20;1.00;;;;;;5118316;28;20799;-72
2021/06/16 03:32:53;;;;;;;3.10;1.53;;;16.20;1.00;;;;;;5118330;28;20547;-72
2021/06/16 03:35:20;;;;;;;2.07;1.63;;;16.30;1.00;;;;;;5118210;28;20471;-72
2021/06/16 03:37:48;;;;;;;2.70;1.47;;;16.30;1.00;;;;;;5117953;28;20920;-72
2021/06/16 03:40:16;;;;;;;1.77;1.47;;;16.30;1.00;;;;;;5117711;28;20455;-72
2021/06/16 03:42:48;;;;;;;2.43;1.50;;;16.40;1.00;;;;;;5118281;28;20452;-72
2021/06/16 03:45:15;;;;;;;3.07;1.60;;;16.40;1.00;;;;;;5118092;28;20445;-72
2021/06/16 03:47:47;;;;;;;2.90;1.40;;;16.50;1.00;;;;;;5117802;28;20476;-72
2021/06/16 03:50:17;;;;;;;2.23;1.47;;;16.50;1.00;;;;;;5117934;28;20468;-72
2021/06/16 03:52:44;;;;;;;2.83;1.70;;;16.60;1.00;;;;;;5117872;28;20452;-72
2021/06/16 03:55:12;;;;;;;3.10;1.43;;;16.70;1.00;;;;;;5117573;28;20456;-71
2021/06/16 03:57:41;;;;;;;5.60;1.60;;;16.80;1.00;;;;;;5118158;28;20560;-73
2021/06/16 04:00:11;;;;;;;2.90;1.80;;;16.80;1.00;;;;;;5118105;28;20509;-72
2021/06/16 04:02:38;;;;;;;2.07;1.50;;;16.90;1.00;;;;;;5117974;28;20456;-72
2021/06/16 04:05:07;;;;;;;5.13;1.67;;;17.00;1.00;;;;;;5117528;28;20463;-72
2021/06/16 04:07:35;;;;;;;4.13;1.67;;;17.00;1.00;;;;;;5117595;28;20467;-72
2021/06/16 04:10:02;;;;;;;2.97;1.80;;;17.00;1.00;;;;;;5117573;28;20503;-72
2021/06/16 04:12:29;;;;;;;2.03;1.60;;;17.10;1.00;;;;;;5118426;28;20463;-72
2021/06/16 04:14:56;;;;;;;6.43;1.33;;;17.20;1.00;;;;;;5117464;28;20460;-72
2021/06/16 04:17:24;;;;;;;2.90;1.97;;;17.20;1.00;;;;;;5117553;27;20900;-73
2021/06/16 04:19:53;;;;;;;3.00;1.50;;;17.30;1.00;;;;;;5117437;28;20526;-72
2021/06/16 04:22:20;;;;;;;1.83;1.43;;;17.40;1.00;;;;;;5117355;28;20467;-72
2021/06/16 04:24:47;;;;;;;2.50;1.67;;;17.40;1.00;;;;;;5117473;28;20453;-72
2021/06/16 04:27:14;;;;;;;2.03;1.40;;;17.50;1.00;;;;;;5117398;28;20456;-72
2021/06/16 04:29:41;;;;;;;2.63;1.70;;;17.50;1.00;;;;;;5118026;28;20867;-72
2021/06/16 04:32:09;;;;;;;3.87;2.10;;;17.50;1.00;;;;;;5117327;28;20463;-72
2021/06/16 04:34:38;;;;;;;2.00;1.20;;;17.60;1.00;;;;;;5117354;28;20460;-72
2021/06/16 04:37:05;;;;;;;2.40;1.30;;;17.60;1.00;;;;;;5117260;28;20452;-72
2021/06/16 04:39:33;;;;;;;3.47;1.80;;;17.60;1.00;;;;;;5117137;28;20467;-72
2021/06/16 04:42:01;;;;;;;3.63;1.67;;;17.60;1.00;;;;;;5117409;28;20457;-72
2021/06/16 04:44:28;;;;;;;2.80;1.13;;;17.60;1.00;;;;;;5116982;28;20464;-71
2021/06/16 04:46:54;;;;;;;3.60;1.33;;;17.60;1.00;;;;;;5116974;28;20489;-72
2021/06/16 04:49:22;;;;;;;2.43;1.50;;;17.60;1.00;;;;;;5117293;28;20510;-72
2021/06/16 04:51:50;;;;;;;3.10;1.40;;;17.60;1.00;;;;;;5116305;28;20486;-72
2021/06/16 04:54:17;;;;;;;5.17;1.40;;;17.60;1.00;;;;;;5117020;28;20463;-73
2021/06/16 04:56:44;;;;;;;4.20;1.67;;;17.60;1.00;;;;;;5116959;28;20460;-72
2021/06/16 04:59:11;;;;;;;1.60;1.33;;;17.60;1.00;;;;;;5116830;28;20464;-72
2021/06/16 05:01:38;;;;;;;2.30;1.40;;;17.60;1.00;;;;;;5116896;28;20471;-72
2021/06/16 05:04:06;;;;;;;2.43;1.57;;;17.60;1.00;;;;;;5116337;28;20922;-72
2021/06/16 05:06:33;;;;;;;1.67;1.33;;;17.60;1.00;;;;;;5116321;28;20456;-72
2021/06/16 05:09:01;;;;;;;2.10;1.60;;;17.60;1.00;;;;;;5116733;28;20785;-72
2021/06/16 05:11:28;;;;;;;2.83;1.53;;;17.70;1.00;;;;;;5116278;28;20487;-72
2021/06/16 05:13:55;;;;;;;5.80;1.43;;;17.70;1.00;;;;;;5116519;28;20453;-72
2021/06/16 05:16:21;;;;;;;3.87;1.40;;;17.70;1.00;;;;;;5116182;28;20464;-72
2021/06/16 05:18:48;;;;;;;2.23;1.73;;;17.70;1.00;;;;;;5115931;28;20449;-72
2021/06/16 05:21:15;;;;;;;2.90;1.40;;;17.70;1.00;;;;;;5116443;28;20460;-72
2021/06/16 05:23:42;;;;;;;2.37;1.43;;;17.80;1.00;;;;;;5116179;28;20452;-71
2021/06/16 05:26:10;;;;;;;2.50;1.60;;;17.80;1.00;;;;;;5116361;28;20780;-72
2021/06/16 05:28:37;;;;;;;3.90;1.27;;;17.80;1.00;;;;;;5115824;28;20467;-72
2021/06/16 05:31:04;;;;;;;3.23;1.40;;;17.90;1.00;;;;;;5115863;28;20796;-71
2021/06/16 05:33:31;;;;;;;3.10;1.30;;;17.90;1.00;;;;;;5115998;28;20464;-71
2021/06/16 05:35:57;;;;;;;2.03;1.17;;;17.90;1.00;;;;;;5115721;28;20452;-72
2021/06/16 05:38:24;;;;;;;1.73;1.30;;;18.00;1.00;;;;;;5116048;28;20464;-71
2021/06/16 05:40:51;;;;;;;1.73;1.17;;;18.10;1.00;;;;;;5116024;28;20820;-72
2021/06/16 05:43:19;;;;;;;2.40;1.40;;;18.10;1.00;;;;;;5116199;28;20796;-72
2021/06/16 05:45:46;;;;;;;2.17;1.70;;;18.20;1.00;;;;;;5115665;28;20467;-71
2021/06/16 05:48:13;;;;;;;3.00;1.13;;;18.30;1.00;;;;;;5115761;28;20456;-71
2021/06/16 05:50:40;;;;;;;2.07;1.47;;;18.40;1.00;;;;;;5115875;28;20476;-71
2021/06/16 05:53:09;;;;;;;3.50;1.40;;;18.50;1.00;;;;;;5115360;28;20456;-71
2021/06/16 05:55:35;;;;;;;1.77;1.00;;;18.60;1.00;;;;;;5115718;28;20460;-72
2021/06/16 05:58:03;;;;;;;1.30;1.20;;;18.70;1.00;;;;;;5115608;28;20457;-71
2021/06/16 06:00:31;;;;;;;4.70;1.20;;;18.80;1.00;;;;;;5115567;28;20818;-73
2021/06/16 06:02:58;;;;;;;1.97;1.23;;;18.90;1.00;;;;;;5114771;28;20460;-71
2021/06/16 06:05:25;;;;;;;3.80;1.40;;;19.00;1.00;;;;;;5115135;28;20468;-71
2021/06/16 06:07:52;;;;;;;2.60;1.47;;;19.10;1.00;;;;;;5115707;28;20483;-71
2021/06/16 06:10:19;;;;;;;1.70;1.40;;;19.10;1.00;;;;;;5115612;28;20468;-72
2021/06/16 06:12:45;;;;;;;11.97;1.60;;;19.20;1.00;;;;;;5115098;28;20463;-71
2021/06/16 06:15:13;;;;;;;4.07;1.80;;;19.20;1.00;;;;;;5115443;28;20792;-71
2021/06/16 06:17:41;;;;;;;1.70;1.40;;;19.30;1.00;;;;;;5115058;28;20478;-72
2021/06/16 06:20:09;;;;;;;1.93;1.30;;;19.30;1.00;;;;;;5114977;28;20463;-72
2021/06/16 06:22:36;;;;;;;6.57;1.77;;;19.40;1.00;;;;;;5115494;28;20757;-72
2021/06/16 06:25:04;;;;;;;1.73;1.30;;;19.50;1.00;;;;;;5115278;28;20452;-72
2021/06/16 06:27:30;;;;;;;2.93;1.37;;;19.50;1.00;;;;;;5115350;28;20467;-72
2021/06/16 06:29:57;;;;;;;1.70;1.10;;;19.60;1.00;;;;;;5115392;28;20475;-72
2021/06/16 06:32:24;;;;;;;2.23;1.03;;;19.60;1.00;;;;;;5115422;28;20472;-72
2021/06/16 06:34:52;;;;;;;1.53;1.00;;;19.70;1.00;;;;;;5115514;28;20456;-72
2021/06/16 06:37:19;;;;;;;4.03;1.23;;;19.70;1.00;;;;;;5115836;28;20456;-72
2021/06/16 06:39:48;;;;;;;7.93;1.40;;;19.70;1.00;;;;;;5114873;28;20453;-72
2021/06/16 06:42:16;;;;;;;5.77;1.40;;;19.80;1.00;;;;;;5115442;28;20794;-71
2021/06/16 06:44:42;;;;;;;2.17;1.43;;;19.80;1.00;;;;;;5115807;28;20457;-71
2021/06/16 06:47:09;;;;;;;6.97;1.60;;;19.80;1.00;;;;;;5114799;28;20486;-72
2021/06/16 06:49:36;;;;;;;2.50;1.43;;;19.80;1.00;;;;;;5114892;28;20456;-72
2021/06/16 06:52:05;;;;;;;2.53;1.53;;;19.90;1.00;;;;;;5114849;28;20476;-71
2021/06/16 06:54:33;;;;;;;3.23;2.00;;;19.90;1.00;;;;;;5115085;28;20895;-72
2021/06/16 06:57:00;;;;;;;2.23;1.53;;;20.00;1.00;;;;;;5115911;28;20580;-72
2021/06/16 06:59:26;;;;;;;3.67;1.50;;;20.00;1.00;;;;;;5114616;28;20463;-72
2021/06/16 07:01:53;;;;;;;3.63;2.10;;;20.10;1.00;;;;;;5115317;28;20755;-72
2021/06/16 07:04:21;;;;;;;3.53;1.30;;;20.10;1.00;;;;;;5114911;28;20795;-72
2021/06/16 07:06:48;;;;;;;2.63;1.40;;;20.20;1.00;;;;;;5115663;28;20452;-70
2021/06/16 07:09:16;;;;;;;4.77;1.50;;;20.30;1.00;;;;;;5115284;28;20731;-71
2021/06/16 07:11:42;;;;;;;2.90;1.20;;;20.40;1.00;;;;;;5115011;28;20487;-72
2021/06/16 07:14:09;;;;;;;2.33;1.10;;;20.50;1.00;;;;;;5115670;28;20813;-72
2021/06/16 07:16:36;;;;;;;4.47;1.27;;;20.50;1.00;;;;;;5119667;28;20456;-73
2021/06/16 07:19:03;;;;;;;2.90;1.20;;;20.60;1.00;;;;;;5123087;28;20466;-72
2021/06/16 07:21:29;;;;;;;2.60;1.40;;;20.60;1.00;;;;;;5120835;28;20459;-71
2021/06/16 07:23:56;;;;;;;2.17;1.27;;;20.70;1.00;;;;;;5119251;28;20462;-71
2021/06/16 07:26:24;;;;;;;7.43;1.30;;;20.70;1.00;;;;;;5118495;28;20888;-71
2021/06/16 07:28:51;;;;;;;3.07;1.17;;;20.80;1.00;;;;;;5119560;28;20509;-71
2021/06/16 07:31:18;;;;;;;3.77;1.27;;;20.90;1.00;;;;;;5119095;28;20472;-71
2021/06/16 07:33:45;;;;;;;2.47;1.30;;;21.00;1.00;;;;;;5118587;28;20457;-72
2021/06/16 07:36:12;;;;;;;3.23;1.63;;;21.00;1.00;;;;;;5119111;28;20456;-71
2021/06/16 07:38:38;;;;;;;2.63;1.40;;;21.10;1.00;;;;;;5119258;28;20453;-71
2021/06/16 07:41:05;;;;;;;1.90;1.10;;;21.20;1.00;;;;;;5118704;28;20463;-71
2021/06/16 07:43:33;;;;;;;2.00;1.20;;;21.30;1.00;;;;;;5118347;28;20902;-71
2021/06/16 07:46:00;;;;;;;4.20;1.23;;;21.40;1.00;;;;;;5118420;28;20463;-71
2021/06/16 07:48:26;;;;;;;8.70;1.47;;;21.50;1.00;;;;;;5118448;28;20441;-71
2021/06/16 07:50:53;;;;;;;2.30;2.00;;;21.50;1.00;;;;;;5118569;28;20982;-71
2021/06/16 07:53:22;;;;;;;3.87;2.03;;;21.60;1.00;;;;;;5118461;28;20461;-71
2021/06/16 07:55:51;;;;;;;2.47;1.60;;;21.70;1.00;;;;;;5118182;28;20517;-70
2021/06/16 07:58:18;;;;;;;2.60;1.70;;;21.80;1.00;;;;;;5117839;28;20448;-69
2021/06/16 08:00:46;;;;;;;2.90;1.60;;;21.80;1.00;;;;;;5117881;28;20452;-70
2021/06/16 08:03:14;;;;;;;3.00;1.30;;;21.90;1.00;;;;;;5117493;28;20456;-70
2021/06/16 08:05:41;;;;;;;3.10;1.47;;;22.00;1.00;;;;;;5117667;28;20463;-70
2021/06/16 08:08:08;;;;;;;7.40;1.57;;;22.10;1.00;;;;;;5117233;28;20460;-70
2021/06/16 08:10:34;;;;;;;1.60;1.27;;;22.10;1.00;;;;;;5117798;28;20534;-70
2021/06/16 08:13:01;;;;;;;5.63;1.77;;;22.20;1.00;;;;;;5117648;28;20487;-69
2021/06/16 08:15:28;;;;;;;1.70;1.60;;;22.30;1.00;;;;;;5117305;28;20464;-70
2021/06/16 08:17:56;;;;;;;3.90;1.30;;;22.30;1.00;;;;;;5117115;28;20456;-71
2021/06/16 08:20:23;;;;;;;2.17;1.20;;;22.40;1.00;;;;;;5117396;28;20456;-70
2021/06/16 08:22:50;;;;;;;4.83;1.50;;;22.50;1.00;;;;;;5117399;28;20758;-71
2021/06/16 08:25:17;;;;;;;3.47;1.23;;;22.50;1.00;;;;;;5117423;28;20463;-71
2021/06/16 08:27:44;;;;;;;3.80;1.50;;;22.60;1.00;;;;;;5116879;28;20452;-71
2021/06/16 08:30:13;;;;;;;2.77;1.30;;;22.60;1.00;;;;;;5117924;28;20495;-70
2021/06/16 08:32:40;;;;;;;3.57;1.43;;;22.70;1.00;;;;;;5117417;28;20472;-70
2021/06/16 08:35:10;;;;;;;3.97;1.60;;;22.80;1.00;;;;;;5117095;28;20480;-71
2021/06/16 08:37:39;;;;;;;3.37;1.40;;;22.90;1.00;;;;;;5116892;28;20465;-71
2021/06/16 08:40:08;;;;;;;2.70;1.40;;;22.90;1.00;;;;;;5117086;28;20452;-71
2021/06/16 08:42:34;;;;;;;2.20;1.53;;;23.00;1.00;;;;;;5117177;28;20455;-71
2021/06/16 08:45:01;;;;;;;3.03;1.50;;;23.10;1.00;;;;;;5117118;28;20907;-71
2021/06/16 08:47:29;;;;;;;3.73;1.73;;;23.20;1.00;;;;;;5116877;28;20495;-71
2021/06/16 08:49:56;;;;;;;5.07;1.33;;;23.20;1.00;;;;;;5116809;28;20938;-71
2021/06/16 08:52:24;;;;;;;1.83;1.50;;;23.30;1.00;;;;;;5117108;28;20476;-71
2021/06/16 08:54:51;;;;;;;2.20;1.40;;;23.30;1.00;;;;;;5117361;28;20787;-71
2021/06/16 08:57:18;;;;;;;7.00;1.47;;;23.40;1.00;;;;;;5117385;28;20453;-73
2021/06/16 08:59:44;;;;;;;3.20;1.40;;;23.40;1.00;;;;;;5116773;28;20460;-71
2021/06/16 09:02:11;;;;;;;2.20;1.40;;;23.50;1.00;;;;;;5116871;28;20456;-71
2021/06/16 09:04:43;;;;;;;2.40;1.60;;;23.50;1.00;;;;;;5116989;28;20920;-72
2021/06/16 09:07:13;;;;;;;3.23;1.77;;;23.60;1.00;;;;;;5116597;28;20437;-71
2021/06/16 09:09:41;;;;;;;3.80;2.10;;;23.70;1.00;;;;;;5117222;28;20586;-71
2021/06/16 09:12:09;;;;;;;2.13;1.50;;;23.80;1.00;;;;;;5116286;28;20480;-71
2021/06/16 09:14:36;;;;;;;5.73;2.03;;;23.70;1.00;;;;;;5116362;28;20503;-71
2021/06/16 09:17:05;;;;;;;4.50;2.13;;;23.80;1.00;;;;;;5116505;28;20471;-70
2021/06/16 09:19:33;;;;;;;2.70;1.37;;;23.80;1.00;;;;;;5116216;28;20464;-72
2021/06/16 09:22:02;;;;;;;2.47;2.10;;;23.90;1.00;;;;;;5116453;28;20463;-71
2021/06/16 09:24:43;;;;;;;3.00;1.60;;;23.90;1.00;;;;;;5116880;28;20467;-71
2021/06/16 09:27:09;;;;;;;3.80;1.87;;;24.00;1.00;;;;;;5116251;28;20441;-70
2021/06/16 09:29:36;;;;;;;4.50;1.77;;;24.10;1.00;;;;;;5116358;28;20457;-71
2021/06/16 09:32:04;;;;;;;3.47;1.40;;;24.10;1.00;;;;;;5116249;28;20972;-71
2021/06/16 09:34:31;;;;;;;3.70;1.70;;;24.20;1.00;;;;;;5116646;28;20457;-71
2021/06/16 09:37:04;;;;;;;1.90;1.73;;;24.30;1.00;;;;;;5115804;28;20552;-70
2021/06/16 09:39:31;;;;;;;3.87;1.60;;;24.30;1.00;;;;;;5116194;28;20436;-72
2021/06/16 09:42:02;;;;;;;3.00;1.60;;;24.30;1.00;;;;;;5116161;28;20453;-71
2021/06/16 09:44:43;;;;;;;3.73;1.90;;;24.40;1.00;;;;;;5115444;28;20459;-72
2021/06/16 09:47:14;;;;;;;2.70;1.90;;;24.40;1.00;;;;;;5115727;28;20476;-71
2021/06/16 09:49:56;;;;;;;10.33;1.80;;;24.40;1.00;;;;;;5115615;28;20924;-71
2021/06/16 09:52:34;;;;;;;3.37;1.50;;;24.50;1.00;;;;;;5116152;28;20765;-71
2021/06/16 09:55:02;;;;;;;4.73;1.90;;;24.50;1.00;;;;;;5115728;28;20457;-71
2021/06/16 09:57:30;;;;;;;4.90;1.80;;;24.60;1.00;;;;;;5115812;28;20452;-71
2021/06/16 10:00:08;;;;;;;3.87;1.90;;;24.60;1.00;;;;;;5115412;28;20539;-71
2021/06/16 10:02:37;;;;;;;3.63;1.40;;;24.70;1.00;;;;;;5116216;28;20515;-72
2021/06/16 10:05:04;;;;;;;3.43;1.53;;;24.70;1.00;;;;;;5115874;28;20457;-71
2021/06/16 10:07:32;;;;;;;2.93;1.43;;;24.70;1.00;;;;;;5115690;28;20459;-71
2021/06/16 10:10:05;;;;;;;4.70;1.70;;;24.70;1.00;;;;;;5116140;28;20452;-71
2021/06/16 10:12:35;;;;;;;1.77;1.50;;;24.70;1.00;;;;;;5115534;28;20471;-71
2021/06/16 10:15:04;;;;;;;2.70;1.63;;;24.70;1.00;;;;;;5115616;28;20460;-71
2021/06/16 10:17:31;;;;;;;3.93;1.90;;;24.70;1.00;;;;;;5115776;28;20765;-71
2021/06/16 10:19:58;;;;;;;3.27;1.60;;;24.70;1.00;;;;;;5115652;28;20452;-70
2021/06/16 10:22:25;;;;;;;1.70;1.57;;;24.80;1.00;;;;;;5115323;28;20459;-71
2021/06/16 10:24:54;;;;;;;1.67;1.47;;;24.90;1.00;;;;;;5115781;28;20452;-71
2021/06/16 10:27:27;;;;;;;2.00;1.50;;;25.00;1.00;;;;;;5115891;28;20548;-71
2021/06/16 10:30:03;;;;;;;3.30;1.90;;;25.20;1.00;;;;;;5116384;28;20436;-71
2021/06/16 10:32:40;;;;;;;3.80;1.90;;;25.30;1.00;;;;;;5116596;28;20464;-72
2021/06/16 10:35:09;;;;;;;3.50;1.60;;;25.40;1.00;;;;;;5116259;28;20469;-71
2021/06/16 10:37:37;;;;;;;2.17;1.60;;;25.50;1.00;;;;;;5115821;28;20456;-71
2021/06/16 10:40:44;;;;;;;3.40;1.97;;;25.50;1.00;;;;;;5115701;28;20520;-71
2021/06/16 10:43:32;;;;;;;4.23;2.00;;;25.60;1.00;;;;;;5116521;28;20828;-73
2021/06/16 10:46:11;;;;;;;5.20;1.90;;;25.60;1.00;;;;;;5116028;28;20459;-72
2021/06/16 10:49:04;;;;;;;2.63;1.90;;;25.80;1.00;;;;;;5116434;28;20828;-72
2021/06/16 10:51:34;;;;;;;1.83;1.57;;;25.80;1.00;;;;;;5119863;28;20440;-71
2021/06/16 10:54:20;;;;;;;2.83;1.80;;;25.90;1.00;;;;;;5119573;28;20464;-72
2021/06/16 10:56:49;;;;;;;5.90;2.13;;;26.00;1.00;;;;;;5118791;28;20984;-71
2021/06/16 10:59:37;;;;;;;3.50;1.80;;;26.10;1.00;;;;;;5119015;28;20467;-71
2021/06/16 11:02:05;;;;;;;2.63;1.53;;;26.20;1.00;;;;;;5118996;28;20448;-71
2021/06/16 11:04:32;;;;;;;3.00;1.60;;;26.40;1.00;;;;;;5119543;28;20560;-72
2021/06/16 11:06:59;;;;;;;1.80;1.60;;;26.50;1.00;;;;;;5119720;28;20552;-71
2021/06/16 11:09:51;;;;;;;1.57;1.47;;;26.60;1.00;;;;;;5119320;28;20448;-70
2021/06/16 11:12:28;;;;;;;2.53;1.50;;;26.80;1.00;;;;;;5119403;28;20472;-72
2021/06/16 11:14:55;;;;;;;2.20;1.57;;;26.90;1.00;;;;;;5118973;28;20436;-71
2021/06/16 11:17:46;;;;;;;1.60;1.50;;;27.00;1.00;;;;;;5118994;28;20460;-71
2021/06/16 11:20:21;;;;;;;9.47;1.90;;;27.20;1.00;;;;;;5119028;28;20451;-71
2021/06/16 11:22:50;;;;;;;3.93;1.67;;;27.50;1.00;;;;;;5119968;28;20731;-71
2021/06/16 11:25:27;;;;;;;3.13;1.97;;;28.10;1.00;;;;;;5119781;28;20456;-72
2021/06/16 11:28:15;;;;;;;4.87;1.70;;;28.70;1.00;;;;;;5119504;28;20498;-71
2021/06/16 11:31:05;;;;;;;4.60;1.50;;;29.60;1.00;;;;;;5119277;28;20460;-73
2021/06/16 11:33:52;;;;;;;3.33;1.60;;;30.70;1.00;;;;;;5119003;28;20500;-70
2021/06/16 11:36:37;;;;;;;7.87;1.97;;;31.70;1.00;;;;;;5118703;28;20540;-70
2021/06/16 11:39:09;;;;;;;2.73;1.30;;;32.60;1.00;;;;;;5119388;28;20450;-70
2021/06/16 11:41:36;;;;;;;6.40;1.63;;;33.40;1.00;;;;;;5119398;28;20445;-70
2021/06/16 11:44:10;;;;;;;2.70;1.50;;;33.90;1.00;;;;;;5119130;28;20464;-70
2021/06/16 11:46:39;;;;;;;2.57;1.53;;;33.80;1.00;;;;;;5118178;28;20823;-71
2021/06/16 11:49:09;;;;;;;4.30;1.50;;;34.10;1.00;;;;;;5118074;28;20457;-69
2021/06/16 11:51:39;;;;;;;5.27;1.90;;;34.40;1.00;;;;;;5118338;28;20455;-71
2021/06/16 11:54:21;;;;;;;3.57;1.83;;;34.70;1.00;;;;;;5117845;28;20460;-71
2021/06/16 11:56:50;;;;;;;3.03;1.60;;;34.80;1.00;;;;;;5118581;28;20441;-71
2021/06/16 11:59:17;;;;;;;4.53;1.60;;;35.10;1.00;;;;;;5117984;28;20805;-72
2021/06/16 12:01:45;;;;;;;4.33;1.40;;;35.40;1.00;;;;;;5116655;28;20804;-71
2021/06/16 12:04:14;;;;;;;3.20;1.50;;;35.00;1.00;;;;;;5118977;28;20448;-70
2021/06/16 12:06:42;;;;;;;1.63;1.30;;;35.20;1.00;;;;;;5118224;28;20452;-70
2021/06/16 12:09:08;;;;;;;6.70;1.60;;;35.60;1.00;;;;;;5117777;28;20988;-69
2021/06/16 12:11:36;;;;;;;2.87;1.70;;;36.10;1.00;;;;;;5118156;28;20456;-70
2021/06/16 12:14:06;;;;;;;1.63;1.33;;;36.70;1.00;;;;;;5117101;28;20502;-69
2021/06/16 12:16:35;;;;;;;5.00;1.43;;;37.30;1.00;;;;;;5117415;28;20460;-71
2021/06/16 12:19:19;;;;;;;2.40;1.30;;;37.70;1.00;;;;;;5117251;28;20452;-69
2021/06/16 12:21:58;;;;;;;2.00;1.50;;;38.20;1.00;;;;;;5117518;28;20853;-71
2021/06/16 12:24:27;;;;;;;7.83;1.60;;;38.70;1.00;;;;;;5118270;28;20440;-71
2021/06/16 12:27:06;;;;;;;5.17;1.30;;;38.50;1.00;;;;;;5117620;28;20463;-70
2021/06/16 12:29:35;;;;;;;5.60;1.47;;;38.30;1.00;;;;;;5117795;28;20567;-70
2021/06/16 12:32:04;;;;;;;5.00;1.23;;;38.40;1.00;;;;;;5117822;28;20819;-71
2021/06/16 12:34:34;;;;;;;1.50;1.30;;;38.90;1.00;;;;;;5118199;28;20460;-70
2021/06/16 12:37:10;;;;;;;2.50;1.37;;;38.90;1.00;;;;;;5118275;28;20775;-70
2021/06/16 12:39:51;;;;;;;4.03;1.40;;;39.00;1.00;;;;;;5118481;28;20441;-70
2021/06/16 12:42:18;;;;;;;3.63;1.53;;;39.20;1.00;;;;;;5118288;28;20451;-70
2021/06/16 12:44:45;;;;;;;1.50;1.23;;;39.60;1.00;;;;;;5117667;28;20550;-70
2021/06/16 12:47:13;;;;;;;10.40;2.03;;;39.80;1.00;;;;;;5118225;28;20484;-70
2021/06/16 12:49:51;;;;;;;1.97;1.40;;;40.00;1.00;;;;;;5117349;28;20943;-70
2021/06/16 12:52:29;;;;;;;10.60;1.67;;;39.80;1.00;;;;;;5117837;28;20514;-70
2021/06/16 12:54:55;;;;;;;2.87;1.50;;;39.40;1.00;;;;;;5117496;28;20444;-71
2021/06/16 12:57:23;;;;;;;5.30;2.00;;;39.30;1.00;;;;;;5116612;28;20461;-70
2021/06/16 12:59:51;;;;;;;1.97;1.40;;;39.60;1.00;;;;;;5116460;28;20460;-70
2021/06/16 13:02:26;;;;;;;3.00;1.50;;;40.00;1.00;;;;;;5117056;28;20453;-70
2021/06/16 13:04:56;;;;;;;2.07;1.30;;;40.40;1.00;;;;;;5116935;28;20535;-70
2021/06/16 13:07:39;;;;;;;2.63;1.27;;;40.90;1.00;;;;;;5116924;28;20453;-71
2021/06/16 13:10:08;;;;;;;2.23;1.37;;;41.30;1.00;;;;;;5116765;28;20425;-70